My webcam more information My webcam


Thunder radar more information blitzortung!


Rain radar more information rain snow radar


Visit our other weather sites:

Template documentation
and downloads

And another site



Nearby METAR Reports

   
EBAW - Antwerp
Updated: 10-12-2018 22:50
Few Clouds  
Few Clouds  
   Wind: West 5.8 mph
Wind: West 5.8 mph
Temperature: 4°C
Wind Chill: 2°C
Dew Point: 2°C
Humidity: 87%
Barometer: 1026 mb
Clouds: Few Clouds
Visibility: More than 10 km
Cloud details: Few Clouds 4600 ft
EBAW 102250Z AUTO 27005KT 9999 // FEW046/// 04/02 Q1026
EBLG - Li├Ęge
Updated: 10-12-2018 22:50
Clear  
Clear  
   Wind: West 8.1 mph
Wind: West 8.1 mph
Temperature: 2°C
Wind Chill: -2°C
Dew Point: 1°C
Humidity: 93%
Barometer: 1025 mb
Visibility: More than 10 km
Cloud details: Clear
EBLG 102250Z 26007KT CAVOK 02/01 Q1025 NOSIG
EBCV - Mons/Bergen
Updated: 10-12-2018 22:55
Mostly Cloudy  
Mostly Cloudy  
   Wind: varies 1.2 mph
Wind: varies 1.2 mph
Temperature: 2°C
Dew Point: 2°C
Humidity: 100%
Barometer: 1027 mb
Clouds: Mostly Cloudy
Visibility: 8 km
Cloud details: Mostly Cloudy 2800 ft,
Mostly Cloudy 4600 ft
EBCV 102255Z AUTO VRB01KT 8000 BKN028/// BKN046/// 02/02 Q1027 BLU
EHBK - Maastricht
Updated: 10-12-2018 22:55
Few Clouds  
Few Clouds  
   Wind: WSW 6.9 mph
Wind: WSW 6.9 mph
Temperature: 3°C
Wind Chill: 0°C
Dew Point: 2°C
Humidity: 93%
Barometer: 1024 mb
Clouds: Few Clouds
Visibility: More than 10 km
Cloud details: Few Clouds 4500 ft
EHBK 102255Z AUTO 24006KT 9999 FEW045 03/02 Q1024
ELLX - Luxemburg
Updated: 10-12-2018 22:50
Clear  
Clear  
   Wind: West 5.8 mph
Wind: West 5.8 mph
Temperature: 2°C
Wind Chill: -1°C
Dew Point: 0°C
Humidity: 87%
Barometer: 1024 mb
Visibility: More than 10 km
Cloud details: Clear
ELLX 102250Z 26005KT 230V290 CAVOK 02/M00 Q1024 NOSIG
EBOS - Oostende
Updated: 10-12-2018 22:50
Partly Cloudy  
Partly Cloudy  
   Wind: NNW 10.4 mph
Wind: NNW 10.4 mph
Temperature: 7°C
Wind Chill: 4°C
Dew Point: 2°C
Humidity: 71%
Barometer: 1027 mb
Clouds: Partly Cloudy
Visibility: More than 10 km
Cloud details: Partly Cloudy 2800 ft
EBOS 102250Z 33009KT 9999 SCT028 07/02 Q1027 NOSIG

Script developed by  Saratoga-weather.org Adapted for the template by  Weerstation Leuven

You find our weather info also at:

UK Metoffice

WeatherCloud

Weather Underground

Equipment we use:

Weather-station
Davis Vantage Vue

Weather-program
Weather Display

Weather-server
Lenovo laptop

Provider
Falcoda Internet

Davis Vantage Vue

Weather Display

Lenovo laptop

Falcoda Internet